Dallas/Fort Worth (DFW/KDFW)

Information

Location
Dallas/Fort Worth, TX
Local Time
20:48 / 8:48 pm
GMT Time
01:48 / 1:48 am
No FAA reported delays
METAR KDFW 270053Z 13005KT 10SM FEW038 SCT050 BKN240 OVC300 29/21 A3000 RMK AO2 SLP151 T02890211
TAF KDFW 262338Z 2700/2806 11006KT P6SM SCT035 BKN300 FM271800 14009KT P6SM BKN045 BKN300